aviador You're here:

MMPA Decoded Metar

POZA RICO in MEXICO
Report Time2018-01-19 18:45:00
UTC Time2018-01-19 19:10:58
Flight Rules mvfr MVFR
Wind040° at 04 kt
W.Decomp.*RWY 08: 2.8 kt HW 2.8 kt LCW
W.Rank040° ranks 15
Current wind is below 040° avg. (6.5)
Visibility8047 m
Phenomena:N/A
Clouds:Broken 015 Hf
Overcast 020 Hf
Expected CloudBase > 400 ft AGL from Temp-Dew spread
Ceiling1,500 ft
Temp17°C (ISA +3)
Dew Point16°C (94% RH)
QNH1023 hPa
Density Alt719 ft
Elevation466 ft
Report Wrong Elevation
Raw Report
MMPA 191845Z 04004KT 5SM BKN015 OVC020 17/16 A3020 RMK 8/8//
HZY=

Extra information for MMPA:More info

Metar Taf Metar & Taf Last 4 Metars F.Rules Stats Wind Profile Meteogram Temp Stats Airport Information Weather charts Add Link Nearby VenuesMetar ALERT Operation Metar Decoded Social comments